createdAt,value
2023-05-13T00:00:43.052Z,21.50
2023-05-13T00:03:12.476Z,17.30
2023-05-13T00:05:42.112Z,16.97
2023-05-13T00:08:12.416Z,20.23
2023-05-13T00:10:41.825Z,17.65
2023-05-13T00:13:11.203Z,19.23
2023-05-13T00:15:40.880Z,17.48
2023-05-13T00:18:10.171Z,20.08
2023-05-13T00:20:39.468Z,18.95
2023-05-13T00:23:09.289Z,16.73
2023-05-13T00:25:38.979Z,17.85
2023-05-13T00:28:08.752Z,17.98
2023-05-13T00:30:38.536Z,16.52
2023-05-13T00:33:07.954Z,17.62
2023-05-13T00:35:37.412Z,17.85
2023-05-13T00:38:07.053Z,17.62
2023-05-13T00:40:39.671Z,16.32
2023-05-13T00:45:40.548Z,15.40
2023-05-13T00:48:10.282Z,16.50
2023-05-13T00:50:42.223Z,16.05
2023-05-13T00:53:12.980Z,15.93
2023-05-13T00:55:46.666Z,15.98
2023-05-13T00:58:17.624Z,16.55
2023-05-13T01:01:06.646Z,16.73
2023-05-13T01:03:53.991Z,14.10
2023-05-13T01:06:26.446Z,17.00
2023-05-13T01:09:04.567Z,13.40
2023-05-13T01:11:37.708Z,14.50
2023-05-13T01:14:16.280Z,13.45
2023-05-13T01:16:48.943Z,13.88
2023-05-13T01:19:49.153Z,13.90
2023-05-13T01:22:18.593Z,13.90
2023-05-13T01:24:47.880Z,12.60
2023-05-13T01:27:17.712Z,15.35
2023-05-13T01:29:49.065Z,13.13
2023-05-13T01:32:20.429Z,14.03
2023-05-13T01:34:52.318Z,12.25
2023-05-13T01:37:23.252Z,12.30
2023-05-13T01:39:53.700Z,12.80
2023-05-13T01:42:25.023Z,12.43
2023-05-13T01:44:55.447Z,12.00
2023-05-13T01:47:25.029Z,12.88
2023-05-13T01:49:54.336Z,13.32
2023-05-13T01:52:23.700Z,12.05
2023-05-13T01:54:52.999Z,12.33
2023-05-13T01:57:22.554Z,12.75
2023-05-13T01:59:53.078Z,15.58
2023-05-13T02:02:22.750Z,12.37
2023-05-13T02:04:52.218Z,13.08
2023-05-13T02:07:21.617Z,13.65
2023-05-13T02:09:50.884Z,13.85
2023-05-13T02:12:20.368Z,14.03
2023-05-13T02:14:49.698Z,12.03
2023-05-13T02:17:19.014Z,13.05
2023-05-13T02:19:48.684Z,12.37
2023-05-13T02:22:18.025Z,12.07
2023-05-13T02:24:47.287Z,12.03
2023-05-13T02:27:16.895Z,10.80
2023-05-13T02:29:46.166Z,11.83
2023-05-13T02:32:15.609Z,12.13
2023-05-13T02:34:44.841Z,11.63
2023-05-13T02:37:14.262Z,10.50
2023-05-13T02:39:45.401Z,9.45
2023-05-13T02:42:15.123Z,11.50
2023-05-13T02:44:44.395Z,9.95
2023-05-13T02:47:14.455Z,12.05
2023-05-13T02:49:43.777Z,11.28
2023-05-13T02:52:13.191Z,13.18
2023-05-13T02:54:42.748Z,10.78
2023-05-13T02:57:12.107Z,12.25
2023-05-13T02:59:43.004Z,11.40
2023-05-13T03:02:12.767Z,13.43
2023-05-13T03:04:42.527Z,11.25
2023-05-13T03:07:11.900Z,13.00
2023-05-13T03:09:42.395Z,10.85
2023-05-13T03:12:11.704Z,13.13
2023-05-13T03:14:43.033Z,11.75
2023-05-13T03:17:12.767Z,13.55
2023-05-13T03:19:42.162Z,12.58
2023-05-13T03:22:11.436Z,12.63
2023-05-13T03:24:41.724Z,12.55
2023-05-13T03:27:11.356Z,13.78
2023-05-13T03:29:41.092Z,13.40
2023-05-13T03:32:10.669Z,12.00
2023-05-13T03:34:40.605Z,13.72
2023-05-13T03:37:10.413Z,14.65
2023-05-13T03:39:39.716Z,13.72
2023-05-13T03:42:09.292Z,15.20
2023-05-13T03:44:38.839Z,14.60
2023-05-13T03:47:08.429Z,14.13
2023-05-13T03:49:37.931Z,15.48
2023-05-13T03:52:10.189Z,17.45
2023-05-13T03:54:39.642Z,15.98
2023-05-13T03:57:09.365Z,17.30
2023-05-13T03:59:39.033Z,17.05
2023-05-13T04:02:08.565Z,16.05
2023-05-13T04:04:38.021Z,17.82
2023-05-13T04:07:07.331Z,20.00
2023-05-13T04:09:36.675Z,19.05
2023-05-13T04:12:06.471Z,17.90
2023-05-13T04:14:36.076Z,19.00
2023-05-13T04:17:05.899Z,18.80
2023-05-13T04:19:35.797Z,20.60
2023-05-13T04:22:05.429Z,17.70
2023-05-13T04:24:35.050Z,18.90
2023-05-13T04:27:04.914Z,21.05
2023-05-13T04:29:34.449Z,18.30
2023-05-13T04:32:04.123Z,20.97
2023-05-13T04:34:33.555Z,19.37
2023-05-13T04:37:02.889Z,20.55
2023-05-13T04:39:32.460Z,20.00
2023-05-13T04:42:02.301Z,20.17
2023-05-13T04:44:35.100Z,18.55
2023-05-13T04:47:04.397Z,18.07
2023-05-13T04:49:35.275Z,17.40
2023-05-13T04:52:07.519Z,19.73
2023-05-13T04:54:39.012Z,17.80
2023-05-13T04:57:08.627Z,18.62
2023-05-13T04:59:38.421Z,18.60
2023-05-13T05:02:09.367Z,18.65
2023-05-13T05:04:38.891Z,18.57
2023-05-13T05:07:09.866Z,17.57
2023-05-13T05:09:39.674Z,16.55
2023-05-13T05:12:09.691Z,18.35
2023-05-13T05:14:40.890Z,22.30
2023-05-13T05:17:10.318Z,16.42
2023-05-13T05:19:40.433Z,16.80
2023-05-13T05:22:10.454Z,19.17
2023-05-13T05:24:40.038Z,19.70
2023-05-13T05:27:11.002Z,16.67
2023-05-13T05:29:40.372Z,18.60
2023-05-13T05:32:09.927Z,19.67
2023-05-13T05:34:40.150Z,19.98
2023-05-13T05:37:11.064Z,19.20
2023-05-13T05:39:41.278Z,18.05
2023-05-13T05:42:10.603Z,19.60
2023-05-13T05:44:39.912Z,19.07
2023-05-13T05:47:09.406Z,17.85
2023-05-13T05:49:39.281Z,17.52
2023-05-13T05:52:10.859Z,18.80
2023-05-13T05:54:40.813Z,17.37
2023-05-13T05:57:10.119Z,19.32
2023-05-13T05:59:39.852Z,16.62
2023-05-13T06:02:09.370Z,18.57
2023-05-13T06:04:38.806Z,20.65
2023-05-13T06:07:10.312Z,18.12
2023-05-13T06:09:39.910Z,18.30
2023-05-13T06:12:09.586Z,20.05
2023-05-13T06:14:38.876Z,17.35
2023-05-13T06:17:08.201Z,17.32
2023-05-13T06:19:37.668Z,17.32
2023-05-13T06:22:06.995Z,20.05
2023-05-13T06:24:38.788Z,16.95
2023-05-13T06:27:08.785Z,20.23
2023-05-13T06:29:38.682Z,15.93
2023-05-13T06:32:09.081Z,13.72
2023-05-13T06:34:40.098Z,16.05
2023-05-13T06:37:10.424Z,15.32
2023-05-13T06:39:40.036Z,17.82
2023-05-13T06:42:11.957Z,16.55
2023-05-13T06:44:42.824Z,17.32
2023-05-13T06:47:13.978Z,15.28
2023-05-13T06:49:44.575Z,14.68
2023-05-13T06:52:14.376Z,16.05
2023-05-13T06:54:43.643Z,15.90
2023-05-13T06:57:13.079Z,15.20
2023-05-13T06:59:42.364Z,15.53
2023-05-13T07:02:11.935Z,15.25
2023-05-13T07:04:41.197Z,15.55
2023-05-13T07:07:11.089Z,16.17
2023-05-13T07:09:40.364Z,16.75
2023-05-13T07:12:11.397Z,15.30
2023-05-13T07:14:40.706Z,16.35
2023-05-13T07:17:10.321Z,16.40
2023-05-13T07:19:39.615Z,16.80
2023-05-13T07:22:09.554Z,16.97
2023-05-13T07:24:38.838Z,14.63
2023-05-13T07:27:08.132Z,15.75
2023-05-13T07:29:37.437Z,14.63
2023-05-13T07:32:07.692Z,14.30
2023-05-13T07:34:37.461Z,14.10
2023-05-13T07:37:07.500Z,14.25
2023-05-13T07:39:36.849Z,12.10
2023-05-13T07:42:06.478Z,13.13
2023-05-13T07:44:36.052Z,13.60
2023-05-13T07:47:05.850Z,12.45
2023-05-13T07:49:35.534Z,12.58
2023-05-13T07:52:04.967Z,13.62
2023-05-13T07:54:34.496Z,12.30
2023-05-13T07:57:04.101Z,12.70
2023-05-13T07:59:33.401Z,13.88
2023-05-13T08:02:02.863Z,13.98
2023-05-13T08:04:32.497Z,15.35
2023-05-13T08:07:05.207Z,12.93
2023-05-13T08:09:34.498Z,11.60
2023-05-13T08:12:04.026Z,12.18
2023-05-13T08:14:33.317Z,12.85
2023-05-13T08:17:03.107Z,13.50
2023-05-13T08:19:32.452Z,12.15
2023-05-13T08:22:02.191Z,12.28
2023-05-13T08:24:31.577Z,12.80
2023-05-13T08:27:01.327Z,12.82
2023-05-13T08:29:30.796Z,12.65
2023-05-13T08:32:00.311Z,15.68
2023-05-13T08:34:29.765Z,11.78
2023-05-13T08:36:59.438Z,12.90
2023-05-13T08:39:29.390Z,11.95
2023-05-13T08:42:00.192Z,11.22
2023-05-13T08:44:30.841Z,11.33
2023-05-13T08:47:15.812Z,12.60
2023-05-13T08:49:46.708Z,11.53
2023-05-13T08:52:16.450Z,11.40
2023-05-13T08:54:47.411Z,13.22
2023-05-13T08:57:17.130Z,11.28
2023-05-13T08:59:47.057Z,11.15
2023-05-13T09:02:16.396Z,12.53
2023-05-13T09:04:47.529Z,12.45
2023-05-13T09:07:17.219Z,10.13
2023-05-13T09:09:46.928Z,12.33
2023-05-13T09:12:35.611Z,11.57
2023-05-13T09:15:10.074Z,12.50
2023-05-13T09:17:42.977Z,10.72
2023-05-13T09:20:15.217Z,11.50
2023-05-13T09:22:49.494Z,11.65
2023-05-13T09:25:20.416Z,11.40
2023-05-13T09:27:56.274Z,10.63
2023-05-13T09:30:27.043Z,10.60
2023-05-13T09:33:09.120Z,10.13
2023-05-13T09:35:40.666Z,11.68
2023-05-13T09:38:20.304Z,7.65
2023-05-13T09:40:54.135Z,10.78
2023-05-13T09:43:28.287Z,11.63
2023-05-13T09:46:00.552Z,8.03
2023-05-13T09:48:32.822Z,8.83
2023-05-13T09:51:02.555Z,8.80
2023-05-13T09:53:32.974Z,7.78
2023-05-13T09:56:02.706Z,7.08
2023-05-13T09:58:32.084Z,7.90
2023-05-13T10:01:02.011Z,9.20
2023-05-13T10:03:31.966Z,7.55
2023-05-13T10:06:03.612Z,6.20
2023-05-13T10:08:33.130Z,7.55
2023-05-13T10:11:03.137Z,7.80
2023-05-13T10:13:33.330Z,5.33
2023-05-13T10:16:03.423Z,4.70
2023-05-13T10:18:33.360Z,6.50
2023-05-13T10:21:04.417Z,6.45
2023-05-13T10:23:34.737Z,7.40
2023-05-13T10:26:04.619Z,6.20
2023-05-13T10:28:35.245Z,5.30
2023-05-13T10:31:04.557Z,6.10
2023-05-13T10:33:34.261Z,5.67
2023-05-13T10:36:25.386Z,6.20
2023-05-13T10:39:18.146Z,7.92
2023-05-13T10:41:59.079Z,6.83
2023-05-13T10:44:29.331Z,7.28
2023-05-13T10:46:59.048Z,8.88
2023-05-13T10:49:36.302Z,8.08
2023-05-13T10:52:07.222Z,6.30
2023-05-13T10:54:42.173Z,8.20
2023-05-13T10:57:11.546Z,8.28
2023-05-13T11:00:00.986Z,7.58
2023-05-13T11:02:32.695Z,9.15
2023-05-13T11:07:31.086Z,7.47
2023-05-13T11:10:01.373Z,7.12
2023-05-13T11:12:30.633Z,7.67
2023-05-13T11:15:00.023Z,8.38
2023-05-13T11:17:30.888Z,7.67
2023-05-13T11:20:00.788Z,8.27
2023-05-13T11:22:31.951Z,6.58
2023-05-13T11:25:11.474Z,7.78
2023-05-13T11:27:42.192Z,7.55
2023-05-13T11:30:26.349Z,8.25
2023-05-13T11:32:59.738Z,7.00
2023-05-13T11:35:31.792Z,8.78
2023-05-13T11:38:03.776Z,14.23
2023-05-13T11:40:38.423Z,7.35
2023-05-13T11:43:07.759Z,8.43
2023-05-13T11:45:41.103Z,7.72
2023-05-13T11:48:21.334Z,8.40
2023-05-13T11:50:53.454Z,8.18
2023-05-13T11:53:23.698Z,8.63
2023-05-13T11:55:53.103Z,6.90
2023-05-13T11:58:22.465Z,8.23
2023-05-13T12:00:53.252Z,7.42
2023-05-13T12:03:22.584Z,8.53
2023-05-13T12:05:52.038Z,7.40
2023-05-13T12:08:23.922Z,7.00
2023-05-13T12:13:23.382Z,6.85
2023-05-13T12:15:53.794Z,7.28
2023-05-13T12:18:23.222Z,8.30
2023-05-13T12:20:52.687Z,9.55
2023-05-13T12:23:21.977Z,7.80
2023-05-13T12:25:51.795Z,7.72
2023-05-13T12:28:28.022Z,9.23
2023-05-13T12:31:03.025Z,8.03
2023-05-13T12:33:47.336Z,7.87
2023-05-13T12:36:23.621Z,8.03
2023-05-13T12:39:00.065Z,9.23
2023-05-13T12:41:37.516Z,10.70
2023-05-13T12:44:12.152Z,8.18
2023-05-13T12:46:53.705Z,12.18
2023-05-13T12:49:23.191Z,9.25
2023-05-13T12:51:52.895Z,8.13
2023-05-13T12:54:25.469Z,7.25
2023-05-13T12:56:55.712Z,7.50
2023-05-13T12:59:26.620Z,9.08
2023-05-13T13:01:55.891Z,8.05
2023-05-13T13:04:25.252Z,6.72
2023-05-13T13:06:54.591Z,9.45
2023-05-13T13:09:23.953Z,7.85
2023-05-13T13:11:53.244Z,10.68
2023-05-13T13:14:23.964Z,9.45
2023-05-13T13:16:53.365Z,8.80
2023-05-13T13:19:23.095Z,7.95
2023-05-13T13:21:52.713Z,8.38
2023-05-13T13:24:22.008Z,6.92
2023-05-13T13:26:53.004Z,7.70
2023-05-13T13:29:22.577Z,11.22
2023-05-13T13:31:52.668Z,7.75
2023-05-13T13:34:22.237Z,7.42
2023-05-13T13:36:51.624Z,7.17
2023-05-13T13:39:21.484Z,8.25
2023-05-13T13:41:50.776Z,7.78
2023-05-13T13:44:20.128Z,8.05
2023-05-13T13:46:49.696Z,7.12
2023-05-13T13:49:23.707Z,7.10
2023-05-13T13:51:51.258Z,7.72
2023-05-13T13:54:20.984Z,8.58
2023-05-13T13:56:50.611Z,8.53
2023-05-13T13:59:20.293Z,7.60
2023-05-13T14:01:49.663Z,7.10
2023-05-13T14:04:27.248Z,8.58
2023-05-13T14:06:56.690Z,7.42
2023-05-13T14:09:26.278Z,7.08
2023-05-13T14:11:55.605Z,8.08
2023-05-13T14:14:28.108Z,6.58
2023-05-13T14:16:57.471Z,6.92
2023-05-13T14:19:26.955Z,7.33
2023-05-13T14:21:56.568Z,7.62
2023-05-13T14:24:28.017Z,9.45
2023-05-13T14:26:57.951Z,8.20
2023-05-13T14:29:28.075Z,8.80
2023-05-13T14:31:58.176Z,9.05
2023-05-13T14:34:27.578Z,6.67
2023-05-13T14:36:56.973Z,6.12
2023-05-13T14:39:26.313Z,5.60
2023-05-13T14:41:55.920Z,5.40
2023-05-13T14:44:25.243Z,4.97
2023-05-13T14:46:54.807Z,4.20
2023-05-13T14:49:24.099Z,8.08
2023-05-13T14:51:53.933Z,5.17
2023-05-13T14:54:23.181Z,6.90
2023-05-13T14:56:53.112Z,7.92
2023-05-13T14:59:22.689Z,7.90
2023-05-13T15:01:52.401Z,7.20
2023-05-13T15:04:21.743Z,6.55
2023-05-13T15:06:51.198Z,6.40
2023-05-13T15:09:21.219Z,7.15
2023-05-13T15:11:50.505Z,5.92
2023-05-13T15:14:21.655Z,8.15
2023-05-13T15:16:50.978Z,8.68
2023-05-13T15:19:20.492Z,5.55
2023-05-13T15:21:49.864Z,6.00
2023-05-13T15:24:19.634Z,4.12
2023-05-13T15:26:50.760Z,4.92
2023-05-13T15:29:20.361Z,6.05
2023-05-13T15:31:52.822Z,5.22
2023-05-13T15:34:22.575Z,6.45
2023-05-13T15:36:51.932Z,5.58
2023-05-13T15:39:21.680Z,4.35
2023-05-13T15:41:50.995Z,5.42
2023-05-13T15:44:22.239Z,4.62
2023-05-13T15:46:52.052Z,5.92
2023-05-13T15:49:22.306Z,5.55
2023-05-13T15:51:53.834Z,6.15
2023-05-13T15:54:23.115Z,5.70
2023-05-13T15:56:54.231Z,6.50
2023-05-13T15:59:24.483Z,6.45
2023-05-13T16:01:53.847Z,5.97
2023-05-13T16:04:23.675Z,5.83
2023-05-13T16:06:53.397Z,6.45
2023-05-13T16:09:22.683Z,7.33
2023-05-13T16:11:52.142Z,6.20
2023-05-13T16:14:21.466Z,5.45
2023-05-13T16:16:50.799Z,6.65
2023-05-13T16:19:20.251Z,7.83
2023-05-13T16:21:49.529Z,5.17
2023-05-13T16:24:18.906Z,7.53
2023-05-13T16:26:48.835Z,5.80
2023-05-13T16:29:18.871Z,7.03
2023-05-13T16:31:48.284Z,7.58
2023-05-13T16:34:17.774Z,6.40
2023-05-13T16:36:47.128Z,7.58
2023-05-13T16:39:16.947Z,5.62
2023-05-13T16:41:46.370Z,4.78
2023-05-13T16:44:16.268Z,7.53
2023-05-13T16:46:45.800Z,5.28
2023-05-13T16:49:15.666Z,7.90
2023-05-13T16:51:45.259Z,5.47
2023-05-13T16:54:15.099Z,6.20
2023-05-13T16:56:46.397Z,5.90
2023-05-13T16:59:24.527Z,5.83
2023-05-13T17:01:54.116Z,7.72
2023-05-13T17:04:23.935Z,4.72
2023-05-13T17:06:53.757Z,5.62
2023-05-13T17:09:23.264Z,5.35
2023-05-13T17:11:52.563Z,6.15
2023-05-13T17:14:22.118Z,5.90
2023-05-13T17:16:51.500Z,8.10
2023-05-13T17:19:20.972Z,4.75
2023-05-13T17:21:50.680Z,5.12
2023-05-13T17:24:21.925Z,5.80
2023-05-13T17:26:51.730Z,6.97
2023-05-13T17:29:21.144Z,5.92
2023-05-13T17:31:52.287Z,5.75
2023-05-13T17:34:21.805Z,7.08
2023-05-13T17:36:51.363Z,5.62
2023-05-13T17:39:20.895Z,6.37
2023-05-13T17:41:50.636Z,5.62
2023-05-13T17:44:20.317Z,5.45
2023-05-13T17:46:49.820Z,6.62
2023-05-13T17:49:19.215Z,7.78
2023-05-13T17:51:48.555Z,8.23
2023-05-13T17:54:17.930Z,6.72
2023-05-13T17:56:47.224Z,8.23
2023-05-13T17:59:16.870Z,7.87
2023-05-13T18:01:46.196Z,6.78
2023-05-13T18:04:16.274Z,6.40
2023-05-13T18:06:45.910Z,6.62
2023-05-13T18:09:15.220Z,7.03
2023-05-13T18:11:44.797Z,6.50
2023-05-13T18:14:14.344Z,5.87
2023-05-13T18:16:43.782Z,7.05
2023-05-13T18:19:13.247Z,6.60
2023-05-13T18:21:42.567Z,7.70
2023-05-13T18:24:12.113Z,8.18
2023-05-13T18:26:41.418Z,6.60
2023-05-13T18:29:11.062Z,7.65
2023-05-13T18:31:40.487Z,9.00
2023-05-13T18:34:09.895Z,7.70
2023-05-13T18:36:39.192Z,7.53
2023-05-13T18:39:10.025Z,46.92
2023-05-13T18:41:39.560Z,8.45
2023-05-13T18:44:09.238Z,6.17
2023-05-13T18:46:38.677Z,9.48
2023-05-13T18:49:08.247Z,8.35
2023-05-13T18:51:37.987Z,7.75
2023-05-13T18:54:07.647Z,8.73
2023-05-13T18:56:37.165Z,7.50
2023-05-13T18:59:06.516Z,9.05
2023-05-13T19:01:36.137Z,7.70
2023-05-13T19:04:05.522Z,10.70
2023-05-13T19:06:38.059Z,8.53
2023-05-13T19:09:07.478Z,9.25
2023-05-13T19:11:36.947Z,11.18
2023-05-13T19:14:06.301Z,10.08
2023-05-13T19:16:35.852Z,10.45
2023-05-13T19:19:05.413Z,10.78
2023-05-13T19:21:34.762Z,10.40
2023-05-13T19:24:04.173Z,9.90
2023-05-13T19:26:33.605Z,10.98
2023-05-13T19:29:02.967Z,15.58
2023-05-13T19:31:32.622Z,12.73
2023-05-13T19:34:02.136Z,12.33
2023-05-13T19:36:31.968Z,12.03
2023-05-13T19:39:01.462Z,12.18
2023-05-13T19:41:30.940Z,13.78
2023-05-13T19:44:01.428Z,14.23
2023-05-13T19:46:31.546Z,15.72
2023-05-13T19:49:01.271Z,16.65
2023-05-13T19:51:31.117Z,13.88
2023-05-13T19:54:00.506Z,13.30
2023-05-13T19:56:30.544Z,15.48
2023-05-13T19:58:59.846Z,14.28
2023-05-13T20:01:30.863Z,14.28
2023-05-13T20:04:00.832Z,16.05
2023-05-13T20:06:30.268Z,14.90
2023-05-13T20:09:01.490Z,22.35
2023-05-13T20:11:31.323Z,14.15
2023-05-13T20:14:00.847Z,15.78
2023-05-13T20:16:31.204Z,16.52
2023-05-13T20:19:01.062Z,16.10
2023-05-13T20:21:31.302Z,16.85
2023-05-13T20:24:00.987Z,16.85
2023-05-13T20:26:32.473Z,16.00
2023-05-13T20:29:02.614Z,16.77
2023-05-13T20:31:32.138Z,15.70
2023-05-13T20:34:03.387Z,19.35
2023-05-13T20:36:33.077Z,17.80
2023-05-13T20:39:02.496Z,17.62
2023-05-13T20:41:32.931Z,18.27
2023-05-13T20:44:02.405Z,20.43
2023-05-13T20:46:31.788Z,17.90
2023-05-13T20:49:01.272Z,19.35
2023-05-13T20:51:30.779Z,20.82
2023-05-13T20:54:00.618Z,18.77
2023-05-13T20:56:30.081Z,20.37
2023-05-13T20:59:00.133Z,21.73
2023-05-13T21:01:33.344Z,19.20
2023-05-13T21:04:06.605Z,21.55
2023-05-13T21:06:36.369Z,21.62
2023-05-13T21:09:06.109Z,20.37
2023-05-13T21:11:37.229Z,21.68
2023-05-13T21:14:06.572Z,22.52
2023-05-13T21:16:36.163Z,22.77
2023-05-13T21:19:11.396Z,25.27
2023-05-13T21:21:40.922Z,25.08
2023-05-13T21:24:10.729Z,23.45
2023-05-13T21:26:40.290Z,23.65
2023-05-13T21:29:09.678Z,25.48
2023-05-13T21:31:39.239Z,25.45
2023-05-13T21:34:08.783Z,23.10
2023-05-13T21:36:39.050Z,27.40
2023-05-13T21:39:10.487Z,26.17
2023-05-13T21:41:40.100Z,27.05
2023-05-13T21:44:09.735Z,28.38
2023-05-13T21:46:39.113Z,28.73
2023-05-13T21:49:08.571Z,28.30
2023-05-13T21:51:38.146Z,31.30
2023-05-13T21:54:07.541Z,28.07
2023-05-13T21:56:36.823Z,30.25
2023-05-13T21:59:06.485Z,26.55
2023-05-13T22:01:35.770Z,29.27
2023-05-13T22:04:05.315Z,27.95
2023-05-13T22:06:34.584Z,27.07
2023-05-13T22:09:04.437Z,31.95
2023-05-13T22:11:33.720Z,32.65
2023-05-13T22:14:03.563Z,30.32
2023-05-13T22:16:32.906Z,29.82
2023-05-13T22:19:04.051Z,31.17
2023-05-13T22:21:33.465Z,33.67
2023-05-13T22:24:04.490Z,29.90
2023-05-13T22:26:34.917Z,30.70
2023-05-13T22:29:04.733Z,27.27
2023-05-13T22:31:34.088Z,31.70
2023-05-13T22:34:03.489Z,32.17
2023-05-13T22:36:32.832Z,30.92
2023-05-13T22:39:02.465Z,28.87
2023-05-13T22:41:31.761Z,29.42
2023-05-13T22:44:01.079Z,28.70
2023-05-13T22:46:30.777Z,29.52
2023-05-13T22:49:00.140Z,29.50
2023-05-13T22:51:29.520Z,32.53
2023-05-13T22:53:58.792Z,35.03
2023-05-13T22:56:28.242Z,27.50
2023-05-13T22:58:58.088Z,29.55
2023-05-13T23:01:27.710Z,29.60
2023-05-13T23:03:57.120Z,32.58
2023-05-13T23:06:27.782Z,35.78
2023-05-13T23:08:57.857Z,30.75
2023-05-13T23:11:27.189Z,32.98
2023-05-13T23:13:56.467Z,32.90
2023-05-13T23:16:26.661Z,30.55
2023-05-13T23:18:56.332Z,31.20
2023-05-13T23:21:26.189Z,31.25
2023-05-13T23:23:55.630Z,34.08
2023-05-13T23:26:24.945Z,31.97
2023-05-13T23:28:54.238Z,33.20
2023-05-13T23:31:23.583Z,34.23
2023-05-13T23:33:53.007Z,31.42
2023-05-13T23:36:22.302Z,34.40
2023-05-13T23:38:51.681Z,32.67
2023-05-13T23:41:21.854Z,35.83
2023-05-13T23:43:51.230Z,36.77
2023-05-13T23:46:21.158Z,35.17
2023-05-13T23:48:50.756Z,34.15
2023-05-13T23:51:20.779Z,33.88
2023-05-13T23:53:50.148Z,34.92
2023-05-13T23:56:19.490Z,35.55
2023-05-13T23:58:48.786Z,35.75
